Time;durP1;ratioP1;P1;durP2;ratioP2;P2;SDS_P1;SDS_P2;PMS_P1;PMS_P2;Temp;Humidity;BMP_temperature;BMP_pressure;BME280_temperature;BME280_humidity;BME280_pressure;Samples;Min_cycle;Max_cycle;Signal;HPM_P1;HPM_P2
2022/05/05 00:01:42;;;;;;;6.80;5.05;;;11.00;99.90;;;;;;4991378;28;20030;-85
2022/05/05 00:04:09;;;;;;;9.13;5.30;;;11.00;99.90;;;;;;4990397;28;20034;-85
2022/05/05 00:06:35;;;;;;;8.18;5.65;;;10.90;99.90;;;;;;4988905;28;20120;-85
2022/05/05 00:09:02;;;;;;;8.10;5.55;;;10.80;99.90;;;;;;4984485;28;20030;-85
2022/05/05 00:14:24;;;;;;;7.57;5.10;;;10.90;99.90;;;;;;4985893;28;20500;-85
2022/05/05 00:17:08;;;;;;;7.75;5.05;;;10.80;99.90;;;;;;4979784;28;20260;-85
2022/05/05 00:19:35;;;;;;;7.47;5.63;;;10.80;99.90;;;;;;5007495;28;20085;-85
2022/05/05 00:22:03;;;;;;;9.27;6.07;;;10.70;99.90;;;;;;5006424;28;20038;-85
2022/05/05 00:24:29;;;;;;;9.43;6.25;;;10.70;99.90;;;;;;4991847;28;20475;-85
2022/05/05 00:26:54;;;;;;;8.73;6.15;;;10.80;99.90;;;;;;4980317;28;20031;-85
2022/05/05 00:29:20;;;;;;;7.95;5.95;;;10.80;99.90;;;;;;4997158;28;20034;-85
2022/05/05 00:31:47;;;;;;;11.10;5.28;;;10.60;99.90;;;;;;4981684;28;20160;-85
2022/05/05 00:34:13;;;;;;;8.63;5.95;;;10.70;99.90;;;;;;4986501;28;20033;-85
2022/05/05 00:36:39;;;;;;;10.68;6.65;;;10.70;99.90;;;;;;4988780;28;20037;-85
2022/05/05 00:39:06;;;;;;;9.60;6.13;;;10.70;99.90;;;;;;4984066;28;20596;-85
2022/05/05 00:41:36;;;;;;;9.13;5.97;;;10.70;99.90;;;;;;4990554;28;20046;-85
2022/05/05 00:44:04;;;;;;;7.20;5.07;;;10.60;99.90;;;;;;4973790;28;20077;-85
2022/05/05 00:46:30;;;;;;;7.90;5.60;;;10.60;99.90;;;;;;5011190;28;20065;-85
2022/05/05 00:48:56;;;;;;;10.02;6.13;;;10.50;99.90;;;;;;4991178;28;20061;-85
2022/05/05 00:51:21;;;;;;;9.95;6.63;;;10.50;99.90;;;;;;4989691;28;20125;-85
2022/05/05 00:53:47;;;;;;;8.88;6.57;;;10.60;99.90;;;;;;5005037;28;20042;-85
2022/05/05 00:56:14;;;;;;;8.10;6.10;;;10.50;99.90;;;;;;4990474;28;20023;-85
2022/05/05 00:58:43;;;;;;;10.35;6.88;;;10.60;99.90;;;;;;4990349;28;20033;-85
2022/05/05 01:01:09;;;;;;;11.88;7.50;;;10.60;99.90;;;;;;4990382;28;20042;-85
2022/05/05 01:03:37;;;;;;;10.27;6.85;;;10.50;99.90;;;;;;5005180;28;20034;-85
2022/05/05 01:06:04;;;;;;;12.38;7.00;;;10.50;99.90;;;;;;4991617;28;20058;-85
2022/05/05 01:08:30;;;;;;;14.93;8.02;;;10.40;99.90;;;;;;4988638;28;20169;-85
2022/05/05 01:10:58;;;;;;;16.77;8.60;;;10.50;99.90;;;;;;4991124;28;20069;-85
2022/05/05 01:13:25;;;;;;;17.65;9.02;;;10.40;99.90;;;;;;4989077;28;20046;-85
2022/05/05 01:15:53;;;;;;;77.30;44.13;;;10.50;99.90;;;;;;4996030;28;20018;-85
2022/05/05 01:18:18;;;;;;;17.48;10.43;;;10.50;99.90;;;;;;4989191;28;20041;-85
2022/05/05 01:20:47;;;;;;;12.88;7.72;;;10.40;99.90;;;;;;4987831;28;20477;-85
2022/05/05 01:23:16;;;;;;;15.07;7.85;;;10.60;99.90;;;;;;4985070;28;20027;-85
2022/05/05 01:28:28;;;;;;;15.73;8.43;;;10.50;99.90;;;;;;4990977;28;20028;-85
2022/05/05 01:30:53;;;;;;;14.73;8.32;;;10.50;99.90;;;;;;4986816;28;20073;-84
2022/05/05 01:33:24;;;;;;;13.48;8.13;;;10.50;99.90;;;;;;5005271;28;20054;-85
2022/05/05 01:35:55;;;;;;;11.73;6.60;;;10.50;99.90;;;;;;4957432;28;20125;-85
2022/05/05 01:38:24;;;;;;;11.32;7.18;;;10.50;99.90;;;;;;4990103;28;20042;-85
2022/05/05 01:40:50;;;;;;;11.10;6.65;;;10.30;99.90;;;;;;5005543;28;20038;-85
2022/05/05 01:43:18;;;;;;;15.77;7.80;;;10.50;99.90;;;;;;4988672;28;20061;-83
2022/05/05 01:45:44;;;;;;;15.57;9.95;;;10.40;99.90;;;;;;4986445;28;20174;-85
2022/05/05 01:48:10;;;;;;;15.38;8.82;;;10.40;99.90;;;;;;4991347;28;20022;-85
2022/05/05 01:50:36;;;;;;;15.77;8.25;;;10.40;99.90;;;;;;4991970;28;20039;-85
2022/05/05 01:53:03;;;;;;;13.35;7.82;;;10.40;99.90;;;;;;4988785;28;20049;-85
2022/05/05 01:55:33;;;;;;;13.00;7.82;;;10.40;99.90;;;;;;5006388;28;20026;-85
2022/05/05 01:57:59;;;;;;;13.85;7.80;;;10.50;99.90;;;;;;4990617;28;20023;-84
2022/05/05 02:00:26;;;;;;;12.52;7.63;;;10.30;99.90;;;;;;5005588;28;20113;-85
2022/05/05 02:02:52;;;;;;;13.32;7.05;;;10.20;99.90;;;;;;4989142;28;20023;-85
2022/05/05 02:05:18;;;;;;;12.38;7.03;;;10.10;99.90;;;;;;4989335;28;20041;-85
2022/05/05 02:07:45;;;;;;;10.73;6.97;;;10.10;99.90;;;;;;4989929;28;20030;-85
2022/05/05 02:10:14;;;;;;;12.82;7.47;;;10.10;99.90;;;;;;5004708;28;20160;-85
2022/05/05 02:12:40;;;;;;;11.02;7.22;;;10.10;99.90;;;;;;4990155;28;20037;-85
2022/05/05 02:15:08;;;;;;;14.38;8.07;;;10.00;99.90;;;;;;4988356;28;20034;-85
2022/05/05 02:17:38;;;;;;;11.50;7.38;;;10.00;99.90;;;;;;5004695;28;20042;-85
2022/05/05 02:20:06;;;;;;;14.18;7.95;;;10.00;99.90;;;;;;4987866;28;20550;-86
2022/05/05 02:22:33;;;;;;;10.57;7.45;;;10.00;99.90;;;;;;4989418;28;20153;-85
2022/05/05 02:24:59;;;;;;;11.30;7.35;;;9.90;99.90;;;;;;4989729;28;20461;-85
2022/05/05 02:27:25;;;;;;;13.85;7.18;;;10.00;99.90;;;;;;4987936;28;20394;-85
2022/05/05 02:29:51;;;;;;;14.00;7.90;;;9.90;99.90;;;;;;4989634;28;20076;-85
2022/05/05 02:32:17;;;;;;;12.32;8.15;;;10.00;99.90;;;;;;4988399;28;20039;-85
2022/05/05 02:34:46;;;;;;;12.30;8.43;;;9.90;99.90;;;;;;4989698;28;20061;-85
2022/05/05 02:39:58;;;;;;;11.23;7.95;;;9.90;99.90;;;;;;4988682;28;20128;-86
2022/05/05 02:42:24;;;;;;;11.57;8.27;;;9.90;99.90;;;;;;4989684;28;20015;-86
2022/05/05 02:44:50;;;;;;;10.93;7.55;;;9.80;99.90;;;;;;4987113;28;20054;-85
2022/05/05 02:47:15;;;;;;;12.60;7.97;;;9.80;99.90;;;;;;5004591;28;20042;-85
2022/05/05 02:49:41;;;;;;;13.75;8.63;;;9.80;99.90;;;;;;5003864;28;20042;-85
2022/05/05 02:52:08;;;;;;;11.73;8.57;;;9.90;99.90;;;;;;4988426;28;20385;-85
2022/05/05 02:54:47;;;;;;;11.85;8.15;;;9.90;99.90;;;;;;4989752;28;20383;-85
2022/05/05 02:57:16;;;;;;;12.73;7.25;;;9.90;99.90;;;;;;4982963;28;20089;-85
2022/05/05 02:59:42;;;;;;;12.73;7.55;;;9.80;99.90;;;;;;4989248;28;20114;-85
2022/05/05 03:02:08;;;;;;;13.25;8.50;;;9.70;99.90;;;;;;4989674;28;20095;-85
2022/05/05 03:04:33;;;;;;;12.50;7.80;;;9.70;99.90;;;;;;4989839;28;20027;-86
2022/05/05 03:07:00;;;;;;;12.90;8.20;;;9.70;99.90;;;;;;4993403;28;20048;-86
2022/05/05 03:09:26;;;;;;;11.15;7.40;;;9.70;99.90;;;;;;5004955;28;20485;-85
2022/05/05 03:11:51;;;;;;;11.15;7.72;;;9.80;99.90;;;;;;5004314;28;20292;-85
2022/05/05 03:14:17;;;;;;;11.63;7.93;;;9.80;99.90;;;;;;4988275;28;20040;-86
2022/05/05 03:16:42;;;;;;;12.85;7.88;;;9.80;99.90;;;;;;5003808;28;20034;-85
2022/05/05 03:19:08;;;;;;;11.63;7.10;;;9.80;99.90;;;;;;4987834;28;20035;-85
2022/05/05 03:21:34;;;;;;;10.52;7.13;;;9.80;99.90;;;;;;4989077;28;20093;-85
2022/05/05 03:23:59;;;;;;;11.60;7.80;;;9.80;99.90;;;;;;4988957;28;20029;-85
2022/05/05 03:26:25;;;;;;;14.13;8.27;;;9.80;99.90;;;;;;4986881;28;20073;-85
2022/05/05 03:28:51;;;;;;;12.25;7.75;;;9.80;99.90;;;;;;5003545;28;20076;-85
2022/05/05 03:31:17;;;;;;;13.45;7.93;;;9.80;99.90;;;;;;4989257;28;20501;-85
2022/05/05 03:33:42;;;;;;;12.90;8.70;;;9.80;99.90;;;;;;4989216;28;20030;-85
2022/05/05 03:36:09;;;;;;;14.23;7.68;;;9.70;99.90;;;;;;5005668;28;20030;-85
2022/05/05 03:38:35;;;;;;;12.50;7.88;;;9.70;99.90;;;;;;5005145;28;20031;-85
2022/05/05 03:41:01;;;;;;;13.98;8.90;;;9.70;99.90;;;;;;4989266;28;20033;-85
2022/05/05 03:43:27;;;;;;;9.90;7.03;;;9.70;99.90;;;;;;4988603;28;20039;-85
2022/05/05 03:45:52;;;;;;;12.05;8.10;;;9.70;99.90;;;;;;4985549;28;20450;-85
2022/05/05 03:48:18;;;;;;;11.00;7.70;;;9.60;99.90;;;;;;4990351;28;20033;-85
2022/05/05 03:50:43;;;;;;;11.52;8.07;;;9.60;99.90;;;;;;5008523;28;20097;-84
2022/05/05 03:53:09;;;;;;;11.10;7.20;;;9.50;99.90;;;;;;5014839;28;20034;-84
2022/05/05 03:55:35;;;;;;;10.98;7.85;;;9.50;99.90;;;;;;5022830;28;20045;-85
2022/05/05 03:58:00;;;;;;;12.68;8.40;;;9.40;99.90;;;;;;5006137;28;20126;-85
2022/05/05 04:00:26;;;;;;;11.95;8.07;;;9.40;99.90;;;;;;4992314;28;20509;-85
2022/05/05 04:05:36;;;;;;;11.30;7.78;;;9.50;99.90;;;;;;5001410;28;20410;-85
2022/05/05 04:08:03;;;;;;;12.05;8.00;;;9.40;99.90;;;;;;4991139;28;20030;-85
2022/05/05 04:10:29;;;;;;;11.55;7.90;;;9.40;99.90;;;;;;4992275;28;20046;-85
2022/05/05 04:12:55;;;;;;;12.50;9.23;;;9.30;99.90;;;;;;4991099;28;20406;-85
2022/05/05 04:15:21;;;;;;;12.20;8.43;;;9.30;99.90;;;;;;5007572;28;20027;-85
2022/05/05 04:17:47;;;;;;;12.27;8.25;;;9.20;99.90;;;;;;4992357;28;20381;-85
2022/05/05 04:20:12;;;;;;;11.85;8.15;;;9.10;99.90;;;;;;4991808;28;20022;-85
2022/05/05 04:22:38;;;;;;;10.50;7.72;;;9.10;99.90;;;;;;4991529;28;20018;-84
2022/05/05 04:25:05;;;;;;;11.85;8.52;;;9.10;99.90;;;;;;4988054;28;20035;-85
2022/05/05 04:27:31;;;;;;;12.00;7.63;;;9.10;99.90;;;;;;4993100;28;20473;-84
2022/05/05 04:29:57;;;;;;;11.18;8.00;;;9.10;99.90;;;;;;4991928;28;20502;-84
2022/05/05 04:32:23;;;;;;;10.95;7.57;;;9.20;99.90;;;;;;4991479;28;20034;-84
2022/05/05 04:34:48;;;;;;;11.23;7.75;;;9.10;99.90;;;;;;4992305;28;20113;-85
2022/05/05 04:37:14;;;;;;;11.30;7.63;;;9.10;99.90;;;;;;4991037;28;20042;-85
2022/05/05 04:39:42;;;;;;;10.38;6.57;;;9.10;99.90;;;;;;5006609;28;20072;-84
2022/05/05 04:42:08;;;;;;;11.77;7.20;;;9.20;99.90;;;;;;4993613;28;20138;-84
2022/05/05 04:44:34;;;;;;;12.15;8.35;;;9.20;99.90;;;;;;4993695;28;20100;-84
2022/05/05 04:47:01;;;;;;;12.77;8.02;;;9.30;99.90;;;;;;4988610;28;20030;-84
2022/05/05 04:49:27;;;;;;;11.40;8.55;;;9.30;99.90;;;;;;4996958;28;20023;-84
2022/05/05 04:51:52;;;;;;;11.60;7.93;;;9.30;99.90;;;;;;5007289;28;20372;-84
2022/05/05 04:54:18;;;;;;;11.38;8.15;;;9.40;99.90;;;;;;4991060;28;20066;-83
2022/05/05 04:56:44;;;;;;;13.90;8.35;;;9.50;99.90;;;;;;4990520;28;20039;-84
2022/05/05 04:59:09;;;;;;;14.50;8.80;;;9.50;99.90;;;;;;4992654;28;20441;-84
2022/05/05 05:01:35;;;;;;;11.48;8.80;;;9.70;99.90;;;;;;5008164;28;20047;-84
2022/05/05 05:04:02;;;;;;;12.23;8.93;;;9.80;99.90;;;;;;5008083;28;20118;-85
2022/05/05 05:06:28;;;;;;;13.43;9.18;;;9.80;99.90;;;;;;5008257;28;20031;-84
2022/05/05 05:08:55;;;;;;;13.57;9.43;;;9.80;99.90;;;;;;5007139;28;20101;-84
2022/05/05 05:11:21;;;;;;;13.88;10.02;;;9.90;99.90;;;;;;4992649;28;20030;-84
2022/05/05 05:13:47;;;;;;;14.13;9.50;;;10.00;99.90;;;;;;4992948;28;20029;-84
2022/05/05 05:16:13;;;;;;;13.95;9.05;;;10.20;99.90;;;;;;4991595;28;20022;-84
2022/05/05 05:18:39;;;;;;;15.15;9.48;;;10.40;99.90;;;;;;4989138;28;20034;-84
2022/05/05 05:21:04;;;;;;;13.95;8.65;;;10.60;99.90;;;;;;4987632;28;20030;-86
2022/05/05 05:23:30;;;;;;;13.57;9.35;;;10.80;99.90;;;;;;4986353;28;20030;-86
2022/05/05 05:25:55;;;;;;;13.68;8.52;;;11.00;99.90;;;;;;5008072;28;20030;-83
2022/05/05 05:28:21;;;;;;;13.68;8.80;;;11.00;99.90;;;;;;4992028;28;20022;-84
2022/05/05 05:30:47;;;;;;;13.30;8.70;;;11.00;99.90;;;;;;5005029;28;20030;-84
2022/05/05 05:33:13;;;;;;;12.00;8.63;;;11.10;99.90;;;;;;4984399;28;20034;-86
2022/05/05 05:35:39;;;;;;;12.82;8.30;;;11.10;99.90;;;;;;4990782;28;20022;-84
2022/05/05 05:38:05;;;;;;;14.35;8.65;;;11.10;99.90;;;;;;4990589;28;20144;-84
2022/05/05 05:40:31;;;;;;;13.05;8.18;;;11.10;99.90;;;;;;4991137;28;20089;-84
2022/05/05 05:42:57;;;;;;;11.70;8.05;;;11.20;99.90;;;;;;4992123;28;20165;-83
2022/05/05 05:45:23;;;;;;;13.80;8.90;;;11.40;99.90;;;;;;4992370;28;20126;-84
2022/05/05 05:47:49;;;;;;;14.75;8.82;;;11.40;99.90;;;;;;4992978;28;20109;-84
2022/05/05 05:50:14;;;;;;;10.40;7.88;;;11.50;99.90;;;;;;4991518;28;20034;-84
2022/05/05 05:52:40;;;;;;;12.07;8.38;;;11.50;99.90;;;;;;4990497;28;20055;-84
2022/05/05 05:55:06;;;;;;;14.32;9.98;;;11.70;99.90;;;;;;4989848;28;20034;-84
2022/05/05 05:57:32;;;;;;;12.35;8.65;;;11.80;99.90;;;;;;4990320;28;20030;-84
2022/05/05 05:59:57;;;;;;;9.88;7.22;;;11.90;99.90;;;;;;4989292;28;20807;-84
2022/05/05 06:05:08;;;;;;;12.18;8.88;;;12.60;99.90;;;;;;4999626;28;20041;-84
2022/05/05 06:07:33;;;;;;;9.43;7.38;;;12.60;99.90;;;;;;4986361;28;20382;-84
2022/05/05 06:09:59;;;;;;;10.60;8.30;;;12.70;99.90;;;;;;4990557;28;20038;-84
2022/05/05 06:12:25;;;;;;;13.63;8.20;;;12.70;99.90;;;;;;4994151;28;20043;-84
2022/05/05 06:14:50;;;;;;;9.95;7.45;;;12.90;99.90;;;;;;4987840;28;20121;-84
2022/05/05 06:17:16;;;;;;;10.90;7.32;;;13.00;99.90;;;;;;4991215;28;20043;-84
2022/05/05 06:19:43;;;;;;;11.23;6.82;;;13.00;99.90;;;;;;5005407;28;20038;-84
2022/05/05 06:22:09;;;;;;;9.82;7.03;;;13.10;99.90;;;;;;4990624;28;20031;-84
2022/05/05 06:24:35;;;;;;;13.20;7.60;;;13.00;99.90;;;;;;5005278;28;20142;-84
2022/05/05 06:27:01;;;;;;;14.50;7.45;;;13.10;99.90;;;;;;4988902;28;20165;-84
2022/05/05 06:29:27;;;;;;;10.98;6.95;;;13.00;99.90;;;;;;4990335;28;20030;-84
2022/05/05 06:31:53;;;;;;;9.48;7.50;;;13.00;99.90;;;;;;4990250;28;20031;-84
2022/05/05 06:34:19;;;;;;;10.93;7.30;;;12.90;99.90;;;;;;4991498;28;20027;-84
2022/05/05 06:36:45;;;;;;;10.75;7.78;;;13.00;99.90;;;;;;4987962;28;20417;-84
2022/05/05 06:39:11;;;;;;;10.10;6.93;;;12.90;99.90;;;;;;4991704;28;20034;-84
2022/05/05 06:41:36;;;;;;;9.90;7.43;;;12.90;99.90;;;;;;4990560;28;20034;-85
2022/05/05 06:44:02;;;;;;;10.05;7.13;;;12.90;99.90;;;;;;4988604;28;20031;-84
2022/05/05 06:46:29;;;;;;;9.57;7.20;;;12.80;99.90;;;;;;4993165;28;20053;-84
2022/05/05 06:48:55;;;;;;;8.43;6.63;;;12.70;99.90;;;;;;5005762;28;20294;-84
2022/05/05 06:51:21;;;;;;;10.55;6.88;;;12.70;99.90;;;;;;4989042;28;20117;-84
2022/05/05 06:53:46;;;;;;;11.27;6.68;;;12.60;99.90;;;;;;4990820;28;20037;-85
2022/05/05 06:56:12;;;;;;;9.18;7.05;;;12.50;99.90;;;;;;5005733;28;20117;-85
2022/05/05 06:58:38;;;;;;;21.48;6.97;;;12.50;99.90;;;;;;5005068;28;20105;-85
2022/05/05 07:05:22;;;;;;;8.65;7.22;;;12.60;99.90;;;;;;4985937;28;20136;-86
2022/05/05 07:06:33;;;;;;;9.25;6.97;;;12.70;99.90;;;;;;5002902;28;20120;-85
2022/05/05 07:11:43;;;;;;;10.48;7.15;;;13.40;99.90;;;;;;4982591;28;20133;-86
2022/05/05 07:14:09;;;;;;;12.23;6.28;;;13.60;99.90;;;;;;5005452;28;20027;-86
2022/05/05 07:16:34;;;;;;;10.30;7.07;;;13.60;99.90;;;;;;4990260;28;20113;-86
2022/05/05 07:19:00;;;;;;;9.65;6.90;;;13.60;99.90;;;;;;5007842;28;20554;-84
2022/05/05 07:21:26;;;;;;;9.07;6.75;;;13.50;99.90;;;;;;5015777;28;20045;-85
2022/05/05 07:23:51;;;;;;;10.43;7.55;;;13.70;99.90;;;;;;4992363;28;20026;-85
2022/05/05 07:26:17;;;;;;;11.85;7.38;;;13.50;99.90;;;;;;4987676;28;20386;-85
2022/05/05 07:28:43;;;;;;;9.23;7.45;;;13.70;99.90;;;;;;4972521;28;20029;-85
2022/05/05 07:31:09;;;;;;;11.80;6.93;;;13.60;99.90;;;;;;5004579;28;20405;-86
2022/05/05 07:33:35;;;;;;;9.48;6.93;;;13.70;99.90;;;;;;5009338;28;20026;-86
2022/05/05 07:36:01;;;;;;;11.20;6.97;;;13.70;99.90;;;;;;4990667;28;20050;-85
2022/05/05 07:38:27;;;;;;;9.15;7.22;;;13.70;99.90;;;;;;4992161;28;20485;-85
2022/05/05 07:40:52;;;;;;;11.30;7.03;;;14.00;99.90;;;;;;4995226;28;20045;-85
2022/05/05 07:43:19;;;;;;;10.52;7.38;;;14.00;99.90;;;;;;5010510;28;20084;-85
2022/05/05 07:45:45;;;;;;;10.77;7.93;;;14.20;99.90;;;;;;4992868;28;20053;-85
2022/05/05 07:48:11;;;;;;;10.27;6.32;;;14.40;99.90;;;;;;4993614;28;20030;-86
2022/05/05 07:50:36;;;;;;;11.65;6.57;;;14.50;99.90;;;;;;4994006;28;20026;-85
2022/05/05 07:53:02;;;;;;;10.18;7.35;;;14.60;99.90;;;;;;5011619;28;20038;-86
2022/05/05 07:55:28;;;;;;;10.07;7.15;;;14.70;99.90;;;;;;4989591;28;20030;-86
2022/05/05 07:57:54;;;;;;;9.45;7.43;;;14.80;99.90;;;;;;4994799;28;20042;-86
2022/05/05 08:00:21;;;;;;;11.05;7.90;;;14.90;99.90;;;;;;4989402;28;20034;-85
2022/05/05 08:02:47;;;;;;;12.25;6.93;;;15.10;99.90;;;;;;5017095;28;20042;-86
2022/05/05 08:05:12;;;;;;;13.50;7.45;;;15.50;99.90;;;;;;4992470;28;20031;-86
2022/05/05 08:07:48;;;;;;;10.30;8.00;;;15.70;99.90;;;;;;5009901;28;20031;-86
2022/05/05 08:10:14;;;;;;;9.18;7.40;;;15.90;99.90;;;;;;4993062;28;20030;-84
2022/05/05 08:12:40;;;;;;;11.32;7.47;;;16.20;99.90;;;;;;4992853;28;20093;-85
2022/05/05 08:15:07;;;;;;;12.95;8.00;;;15.80;99.90;;;;;;4993474;28;20034;-85
2022/05/05 08:17:33;;;;;;;10.07;7.22;;;16.20;99.90;;;;;;4991246;28;20030;-85
2022/05/05 08:20:00;;;;;;;11.77;9.20;;;16.40;99.90;;;;;;4991113;28;20033;-86
2022/05/05 08:22:25;;;;;;;11.93;7.65;;;16.00;98.00;;;;;;4991851;28;20026;-86
2022/05/05 08:30:19;;;;;;;13.10;8.57;;;16.20;98.80;;;;;;4991171;28;20049;-85
2022/05/05 08:32:45;;;;;;;12.30;9.13;;;15.60;98.90;;;;;;4991457;28;20034;-85
2022/05/05 08:35:10;;;;;;;9.40;8.05;;;15.20;99.90;;;;;;4993550;28;20243;-85
2022/05/05 08:37:36;;;;;;;10.63;8.32;;;15.40;99.90;;;;;;4975982;28;20030;-85
2022/05/05 08:40:02;;;;;;;11.27;8.10;;;15.70;99.70;;;;;;4990756;28;20038;-85
2022/05/05 08:42:28;;;;;;;12.63;8.38;;;15.90;99.90;;;;;;4991934;28;20073;-86
2022/05/05 08:44:53;;;;;;;15.52;11.07;;;16.10;99.90;;;;;;4993490;28;20055;-85
2022/05/05 08:47:23;;;;;;;15.07;10.65;;;16.10;98.40;;;;;;4992652;28;20175;-84
2022/05/05 08:49:49;;;;;;;14.43;8.80;;;15.90;97.30;;;;;;4988850;28;20037;-85
2022/05/05 08:52:21;;;;;;;15.90;9.75;;;15.40;99.40;;;;;;4991891;28;20691;-85
2022/05/05 08:54:48;;;;;;;12.93;9.10;;;15.70;99.20;;;;;;4994146;28;20496;-85
2022/05/05 08:57:15;;;;;;;11.07;8.18;;;15.60;98.30;;;;;;5012959;28;20050;-85
2022/05/05 08:59:40;;;;;;;11.02;8.68;;;15.60;99.90;;;;;;5012598;28;20028;-85
2022/05/05 09:02:07;;;;;;;12.38;9.45;;;15.70;99.90;;;;;;5010064;28;20048;-85
2022/05/05 09:04:33;;;;;;;13.05;9.07;;;16.00;99.00;;;;;;4986929;28;20037;-85
2022/05/05 09:06:59;;;;;;;13.40;9.13;;;16.40;98.00;;;;;;5015315;28;20113;-85
2022/05/05 09:09:35;;;;;;;10.90;9.45;;;16.80;97.80;;;;;;4996374;28;20171;-85
2022/05/05 09:12:20;;;;;;;12.15;9.52;;;16.30;95.10;;;;;;5020120;28;20389;-85
2022/05/05 09:14:46;;;;;;;11.68;8.95;;;16.50;93.80;;;;;;4988998;28;20057;-85
2022/05/05 09:17:17;;;;;;;12.52;9.10;;;16.60;94.10;;;;;;4988196;28;20382;-85
2022/05/05 09:19:47;;;;;;;;;;;16.40;94.80;;;;;;4992659;28;20112;-85
2022/05/05 09:22:14;;;;;;;13.68;10.02;;;16.20;93.90;;;;;;4993399;28;19920;-85
2022/05/05 09:24:44;;;;;;;13.48;9.15;;;16.10;99.90;;;;;;4993415;28;20026;-85
2022/05/05 09:27:15;;;;;;;11.25;8.25;;;16.80;94.70;;;;;;4986552;28;20057;-85
2022/05/05 09:29:42;;;;;;;11.93;9.27;;;17.30;93.10;;;;;;4978117;28;20022;-85
2022/05/05 09:32:12;;;;;;;11.27;8.10;;;17.90;91.00;;;;;;4979358;28;20030;-85
2022/05/05 09:34:40;;;;;;;11.15;8.98;;;17.80;87.30;;;;;;4992532;28;20204;-85
2022/05/05 09:37:20;;;;;;;12.07;9.38;;;17.80;89.40;;;;;;4991099;28;20520;-85
2022/05/05 09:39:46;;;;;;;11.98;9.30;;;18.40;83.20;;;;;;4992651;28;20160;-85
2022/05/05 09:42:11;;;;;;;11.57;9.15;;;18.00;81.50;;;;;;4991024;28;20117;-86
2022/05/05 09:44:46;;;;;;;13.38;8.98;;;18.10;83.90;;;;;;4990291;28;20051;-86
2022/05/05 09:47:15;;;;;;;11.18;8.68;;;18.00;81.90;;;;;;4984613;28;20042;-86
2022/05/05 09:49:56;;;;;;;15.37;9.97;;;18.20;80.50;;;;;;4992234;28;20030;-86
2022/05/05 09:57:55;;;;;;;12.25;8.52;;;18.40;76.60;;;;;;4992892;28;20130;-86
2022/05/05 10:05:56;;;;;;;12.23;10.57;;;19.00;74.90;;;;;;5001762;28;20037;-86
2022/05/05 10:08:38;;;;;;;11.10;8.85;;;19.10;74.40;;;;;;4992109;28;20096;-86
2022/05/05 10:11:08;;;;;;;13.60;10.75;;;19.10;69.10;;;;;;4990829;28;20113;-86
2022/05/05 10:13:37;;;;;;;13.35;10.75;;;19.00;73.30;;;;;;4990955;28;20309;-86
2022/05/05 10:16:06;;;;;;;11.82;9.88;;;19.10;70.20;;;;;;4992124;28;20038;-86
2022/05/05 10:18:35;;;;;;;10.70;9.07;;;19.60;68.70;;;;;;5007845;28;20030;-86
2022/05/05 10:21:02;;;;;;;12.30;9.57;;;20.30;66.20;;;;;;4990757;28;20034;-86
2022/05/05 10:23:39;;;;;;;12.15;10.18;;;20.20;63.30;;;;;;4991338;28;20027;-86
2022/05/05 10:26:05;;;;;;;13.55;11.10;;;20.70;65.60;;;;;;4989101;28;20302;-86
2022/05/05 10:28:47;;;;;;;11.85;9.88;;;20.70;63.30;;;;;;5005627;28;20030;-86
2022/05/05 10:31:37;;;;;;;11.25;8.82;;;21.10;59.80;;;;;;4989594;28;20486;-86
2022/05/05 10:34:07;;;;;;;9.82;8.82;;;21.40;60.30;;;;;;4993118;28;20042;-86
2022/05/05 10:36:37;;;;;;;13.93;9.57;;;20.40;60.60;;;;;;4992903;28;20382;-86
2022/05/05 10:39:19;;;;;;;11.15;8.98;;;20.30;60.00;;;;;;4992494;28;20026;-86
2022/05/05 10:41:45;;;;;;;11.82;9.00;;;20.60;62.60;;;;;;4987598;28;20035;-86
2022/05/05 10:44:19;;;;;;;12.18;10.07;;;20.80;63.60;;;;;;4990363;28;20030;-86
2022/05/05 10:47:04;;;;;;;10.45;8.48;;;20.90;58.50;;;;;;4990525;28;20073;-86
2022/05/05 10:52:10;;;;;;;11.48;9.60;;;20.90;63.20;;;;;;4986502;28;20433;-86
2022/05/05 10:54:41;;;;;;;12.90;9.73;;;20.60;62.40;;;;;;4995658;28;20436;-86
2022/05/05 10:57:24;;;;;;;10.25;9.18;;;21.10;63.60;;;;;;4994884;28;20092;-86
2022/05/05 11:00:09;;;;;;;11.70;9.55;;;21.20;57.70;;;;;;5006170;28;20464;-89
2022/05/05 11:02:37;;;;;;;11.80;10.05;;;21.20;59.20;;;;;;4996352;28;20047;-89
2022/05/05 11:05:27;;;;;;;11.77;10.10;;;20.90;60.00;;;;;;4996850;28;20030;-89
2022/05/05 11:07:54;;;;;;;13.50;10.82;;;20.60;61.80;;;;;;4997861;28;20480;-90
2022/05/05 11:10:38;;;;;;;12.10;10.75;;;21.00;60.40;;;;;;4997552;28;20058;-89
2022/05/05 11:13:04;;;;;;;13.57;10.27;;;21.70;59.20;;;;;;4998626;28;20101;-88
2022/05/05 11:21:35;;;;;;;12.10;10.75;;;21.80;51.80;;;;;;4998813;28;20105;-89
2022/05/05 11:24:01;;;;;;;11.80;10.52;;;21.50;54.50;;;;;;4991504;28;20023;-87
2022/05/05 11:26:27;;;;;;;12.35;9.85;;;20.90;53.60;;;;;;4992932;28;20030;-89
2022/05/05 11:28:55;;;;;;;11.63;10.40;;;20.40;56.00;;;;;;5003871;28;20029;-89
2022/05/05 11:31:24;;;;;;;11.73;10.52;;;20.40;57.40;;;;;;5013950;28;20023;-90
2022/05/05 11:33:59;;;;;;;11.63;10.15;;;21.10;59.00;;;;;;5001132;28;20022;-89
2022/05/05 11:36:37;;;;;;;13.07;11.60;;;21.10;56.50;;;;;;5022060;28;20026;-89
2022/05/05 11:39:03;;;;;;;14.85;11.43;;;20.80;57.30;;;;;;5007019;28;20052;-90
2022/05/05 11:41:31;;;;;;;12.30;10.43;;;20.00;58.20;;;;;;5015277;28;20019;-90
2022/05/05 11:44:14;;;;;;;11.50;9.52;;;20.90;58.00;;;;;;4989450;28;20031;-90
2022/05/05 11:46:40;;;;;;;11.52;9.75;;;21.30;54.40;;;;;;4978774;28;20063;-90
2022/05/05 11:49:08;;;;;;;10.95;9.57;;;21.40;52.30;;;;;;4975353;28;20030;-90
2022/05/05 11:51:35;;;;;;;10.88;9.05;;;22.20;52.90;;;;;;4983270;28;20030;-90
2022/05/05 11:54:05;;;;;;;12.90;9.27;;;22.80;49.30;;;;;;4973360;28;20486;-90
2022/05/05 11:56:33;;;;;;;10.13;8.27;;;22.00;51.20;;;;;;4954771;28;20031;-90
2022/05/05 12:02:11;;;;;;;10.05;8.07;;;22.00;48.50;;;;;;4965505;28;20094;-89
2022/05/05 12:04:41;;;;;;;10.55;8.52;;;22.80;51.40;;;;;;4966948;28;20035;-89
2022/05/05 12:07:09;;;;;;;10.23;8.73;;;24.00;48.20;;;;;;4960632;28;20070;-89
2022/05/05 12:09:36;;;;;;;8.45;7.50;;;24.30;42.70;;;;;;4970602;28;20102;-89
2022/05/05 12:12:11;;;;;;;8.18;7.05;;;24.20;43.60;;;;;;4972953;28;20541;-89
2022/05/05 12:14:42;;;;;;;9.25;8.00;;;23.80;42.00;;;;;;4971808;28;20034;-88
2022/05/05 12:17:11;;;;;;;9.40;8.45;;;24.00;43.00;;;;;;4978790;28;20605;-89
2022/05/05 12:20:07;;;;;;;9.00;8.10;;;23.10;43.30;;;;;;4974024;28;20034;-88
2022/05/05 12:22:37;;;;;;;10.85;9.75;;;23.30;46.10;;;;;;4972490;28;20304;-89
2022/05/05 12:25:14;;;;;;;9.90;8.90;;;22.80;46.90;;;;;;4974126;28;20558;-88
2022/05/05 12:27:42;;;;;;;9.77;7.82;;;22.50;45.90;;;;;;4970295;28;20042;-88
2022/05/05 12:30:09;;;;;;;8.93;6.95;;;21.90;48.70;;;;;;4959974;28;20023;-88
2022/05/05 12:32:34;;;;;;;7.75;6.80;;;22.20;48.50;;;;;;4961043;28;20043;-88
2022/05/05 12:35:11;;;;;;;8.38;6.82;;;22.50;47.60;;;;;;4975345;28;20037;-89
2022/05/05 12:37:37;;;;;;;9.52;7.68;;;22.30;46.70;;;;;;4975876;28;20110;-88
2022/05/05 12:40:05;;;;;;;9.32;8.30;;;22.80;45.20;;;;;;4975744;28;20045;-88
2022/05/05 12:42:41;;;;;;;10.48;8.90;;;22.20;48.50;;;;;;4974530;28;20470;-88
2022/05/05 12:45:12;;;;;;;10.40;9.30;;;21.80;50.10;;;;;;4979603;28;20054;-89
2022/05/05 12:47:41;;;;;;;8.75;7.80;;;21.80;49.10;;;;;;4993411;28;20481;-89
2022/05/05 12:50:26;;;;;;;7.68;6.88;;;22.00;48.00;;;;;;5004504;28;20117;-87
2022/05/05 13:01:44;;;;;;;8.38;6.28;;;23.20;44.40;;;;;;4978223;28;20379;-88
2022/05/05 13:04:14;;;;;;;7.60;5.90;;;23.80;44.00;;;;;;4985959;28;20050;-88
2022/05/05 13:06:48;;;;;;;12.45;7.45;;;24.30;41.40;;;;;;4994975;28;20022;-86
2022/05/05 13:09:14;;;;;;;10.98;7.70;;;23.20;43.50;;;;;;4976219;28;20089;-88
2022/05/05 13:11:49;;;;;;;9.38;7.68;;;23.40;43.80;;;;;;4975040;28;20023;-88
2022/05/05 13:14:15;;;;;;;11.68;9.88;;;24.10;42.80;;;;;;5000397;28;20058;-89
2022/05/05 13:16:44;;;;;;;9.52;8.00;;;22.70;43.20;;;;;;4989516;28;20327;-88
2022/05/05 13:19:10;;;;;;;10.27;6.97;;;23.30;44.40;;;;;;5010505;28;20112;-86
2022/05/05 13:21:36;;;;;;;8.00;6.10;;;24.00;43.60;;;;;;4993768;28;20390;-87
2022/05/05 13:24:02;;;;;;;8.23;5.78;;;24.80;40.50;;;;;;4993172;28;20026;-87
2022/05/05 13:26:28;;;;;;;8.45;6.72;;;24.80;40.00;;;;;;4986212;28;20037;-87
2022/05/05 13:28:55;;;;;;;6.93;6.22;;;25.40;39.30;;;;;;4991319;28;20030;-87
2022/05/05 13:31:21;;;;;;;11.07;9.00;;;25.50;38.90;;;;;;5000297;28;20026;-86
2022/05/05 13:33:47;;;;;;;8.73;7.82;;;25.30;38.00;;;;;;5005787;28;20033;-86
2022/05/05 13:36:12;;;;;;;9.80;7.90;;;25.30;38.90;;;;;;4968909;28;20034;-88
2022/05/05 13:38:38;;;;;;;9.43;7.95;;;25.10;40.10;;;;;;4972259;28;20023;-87
2022/05/05 13:41:04;;;;;;;8.20;7.35;;;25.00;40.30;;;;;;4986092;28;20493;-87